Time;durP1;ratioP1;P1;durP2;ratioP2;P2;SDS_P1;SDS_P2;PMS_P1;PMS_P2;Temp;Humidity;BMP_temperature;BMP_pressure;BME280_temperature;BME280_humidity;BME280_pressure;Samples;Min_cycle;Max_cycle;Signal;HPM_P1;HPM_P2
2021/05/09 00:00:58;;;;;;;6.20;5.03;;;8.70;99.90;;;;;;5014226;28;20152;-72
2021/05/09 00:03:24;;;;;;;6.88;5.45;;;8.70;99.90;;;;;;5013326;28;20022;-73
2021/05/09 00:05:50;;;;;;;7.07;4.88;;;8.60;99.90;;;;;;5013977;28;20033;-72
2021/05/09 00:08:16;;;;;;;8.20;5.38;;;8.60;99.90;;;;;;4996102;28;20022;-73
2021/05/09 00:10:43;;;;;;;7.03;5.60;;;8.60;99.90;;;;;;5013251;28;20468;-73
2021/05/09 00:13:09;;;;;;;8.43;5.35;;;8.60;99.90;;;;;;5013434;28;20536;-75
2021/05/09 00:15:35;;;;;;;9.70;6.30;;;8.50;99.90;;;;;;4996195;28;20026;-73
2021/05/09 00:18:00;;;;;;;8.88;5.88;;;8.50;99.90;;;;;;5013590;28;20240;-73
2021/05/09 00:20:26;;;;;;;6.35;5.75;;;8.60;99.90;;;;;;5013868;28;20030;-74
2021/05/09 00:22:52;;;;;;;8.43;6.32;;;8.60;99.90;;;;;;5013216;28;20033;-72
2021/05/09 00:25:18;;;;;;;8.85;6.38;;;8.50;99.90;;;;;;5013663;28;20022;-73
2021/05/09 00:27:44;;;;;;;9.75;6.38;;;8.50;99.90;;;;;;4996418;28;20392;-73
2021/05/09 00:30:11;;;;;;;7.75;5.78;;;8.50;99.90;;;;;;5013936;28;20030;-73
2021/05/09 00:32:37;;;;;;;6.07;5.18;;;8.50;99.90;;;;;;5013134;28;20160;-77
2021/05/09 00:35:03;;;;;;;6.85;5.38;;;8.40;99.90;;;;;;5013396;28;20026;-73
2021/05/09 00:37:29;;;;;;;7.70;5.88;;;8.50;99.90;;;;;;5013741;28;20053;-75
2021/05/09 00:39:55;;;;;;;7.78;5.70;;;8.50;99.90;;;;;;5013788;28;20072;-73
2021/05/09 00:42:21;;;;;;;9.50;5.47;;;8.50;99.90;;;;;;5013642;28;20101;-73
2021/05/09 00:44:46;;;;;;;10.00;5.68;;;8.50;99.90;;;;;;5012708;28;20445;-74
2021/05/09 00:47:13;;;;;;;11.00;6.38;;;8.40;99.90;;;;;;5013831;28;20026;-72
2021/05/09 00:49:40;;;;;;;6.43;5.60;;;8.40;99.90;;;;;;4995789;28;20053;-75
2021/05/09 00:52:08;;;;;;;6.75;5.75;;;8.40;99.90;;;;;;5013704;28;20022;-74
2021/05/09 00:54:34;;;;;;;7.97;5.30;;;8.40;99.90;;;;;;5013718;28;20363;-74
2021/05/09 00:57:01;;;;;;;6.15;5.07;;;8.30;99.90;;;;;;5014212;28;20038;-73
2021/05/09 00:59:29;;;;;;;6.13;5.32;;;8.40;99.90;;;;;;5015124;28;20025;-73
2021/05/09 01:01:56;;;;;;;7.45;6.05;;;8.30;99.90;;;;;;5016307;28;20018;-73
2021/05/09 01:04:22;;;;;;;10.85;5.78;;;8.30;99.90;;;;;;5014897;28;20022;-72
2021/05/09 01:06:48;;;;;;;8.82;6.63;;;8.40;99.90;;;;;;5014343;28;20076;-73
2021/05/09 01:09:14;;;;;;;8.38;6.47;;;8.30;99.90;;;;;;4996007;28;20018;-73
2021/05/09 01:11:43;;;;;;;7.65;6.03;;;8.30;99.90;;;;;;5013096;28;20085;-72
2021/05/09 01:14:09;;;;;;;8.90;6.85;;;8.20;99.90;;;;;;5012688;28;20022;-73
2021/05/09 01:16:35;;;;;;;8.23;6.18;;;8.20;99.90;;;;;;4995537;28;20026;-73
2021/05/09 01:19:00;;;;;;;10.23;6.78;;;8.20;99.90;;;;;;5012758;28;20029;-75
2021/05/09 01:21:26;;;;;;;8.30;6.22;;;8.20;99.90;;;;;;5012427;28;20014;-72
2021/05/09 01:23:53;;;;;;;7.63;6.30;;;8.20;99.90;;;;;;5011916;28;20079;-73
2021/05/09 01:26:18;;;;;;;7.10;6.28;;;8.30;99.90;;;;;;5012945;28;20057;-73
2021/05/09 01:28:47;;;;;;;7.65;6.50;;;8.20;99.90;;;;;;4995053;28;20636;-74
2021/05/09 01:31:13;;;;;;;7.15;6.40;;;8.20;99.90;;;;;;5013112;28;20060;-75
2021/05/09 01:33:38;;;;;;;9.27;6.68;;;8.20;99.90;;;;;;5012481;28;20105;-73
2021/05/09 01:36:04;;;;;;;7.78;5.90;;;8.20;99.90;;;;;;4995151;28;20061;-73
2021/05/09 01:38:30;;;;;;;8.73;6.40;;;8.20;99.90;;;;;;5012843;28;20018;-72
2021/05/09 01:40:56;;;;;;;7.85;6.07;;;8.20;99.90;;;;;;5012207;28;20102;-72
2021/05/09 01:43:21;;;;;;;11.23;6.03;;;8.20;99.90;;;;;;4994306;28;20030;-74
2021/05/09 01:45:47;;;;;;;9.27;6.70;;;8.10;99.90;;;;;;4994949;28;20392;-74
2021/05/09 01:48:13;;;;;;;10.68;6.75;;;8.20;99.90;;;;;;5021006;28;20510;-72
2021/05/09 01:50:39;;;;;;;12.48;7.03;;;8.00;99.90;;;;;;5033669;28;20025;-72
2021/05/09 01:53:05;;;;;;;9.95;6.70;;;8.00;99.90;;;;;;5031298;28;20037;-73
2021/05/09 01:55:31;;;;;;;8.18;6.53;;;8.00;99.90;;;;;;5032067;28;20033;-74
2021/05/09 01:57:57;;;;;;;8.98;5.65;;;8.00;99.90;;;;;;5031669;28;20033;-72
2021/05/09 02:00:23;;;;;;;8.85;5.70;;;7.90;99.90;;;;;;5013958;28;20143;-73
2021/05/09 02:02:49;;;;;;;5.70;5.18;;;7.90;99.90;;;;;;5031280;28;20033;-73
2021/05/09 02:05:17;;;;;;;8.25;5.57;;;7.90;99.90;;;;;;5013782;28;20033;-72
2021/05/09 02:07:42;;;;;;;7.28;6.28;;;8.00;99.90;;;;;;5031821;28;20049;-73
2021/05/09 02:10:09;;;;;;;6.15;5.28;;;8.00;99.90;;;;;;5013853;28;20080;-76
2021/05/09 02:12:36;;;;;;;6.82;5.97;;;7.80;99.90;;;;;;5032113;28;20030;-74
2021/05/09 02:15:04;;;;;;;6.43;5.28;;;7.80;99.90;;;;;;5031495;28;20423;-74
2021/05/09 02:17:29;;;;;;;9.70;5.75;;;7.70;99.90;;;;;;5031875;28;20167;-73
2021/05/09 02:19:55;;;;;;;6.18;5.28;;;7.70;99.90;;;;;;5031573;28;20105;-74
2021/05/09 02:22:21;;;;;;;6.60;5.65;;;7.70;99.90;;;;;;5031657;28;20060;-75
2021/05/09 02:24:46;;;;;;;9.13;6.05;;;7.70;99.90;;;;;;5031339;28;20025;-73
2021/05/09 02:27:12;;;;;;;8.23;6.28;;;7.70;99.90;;;;;;5014028;28;20026;-72
2021/05/09 02:29:38;;;;;;;7.47;5.95;;;7.80;99.90;;;;;;5031562;28;20230;-74
2021/05/09 02:32:04;;;;;;;7.40;5.95;;;7.70;99.90;;;;;;5031696;28;20092;-73
2021/05/09 02:34:31;;;;;;;7.68;5.40;;;7.70;99.90;;;;;;5033242;28;20033;-72
2021/05/09 02:36:57;;;;;;;7.50;5.28;;;7.70;99.90;;;;;;5035896;28;20502;-74
2021/05/09 02:39:23;;;;;;;7.55;5.60;;;7.60;99.90;;;;;;5017605;28;20036;-73
2021/05/09 02:41:48;;;;;;;9.38;5.25;;;7.70;99.90;;;;;;5035515;28;20189;-73
2021/05/09 02:44:14;;;;;;;5.70;5.10;;;7.70;99.90;;;;;;5034976;28;20095;-74
2021/05/09 02:46:40;;;;;;;5.93;5.32;;;7.70;99.90;;;;;;5035482;28;20017;-74
2021/05/09 02:49:06;;;;;;;6.30;5.38;;;7.80;99.90;;;;;;5001955;28;20499;-74
2021/05/09 02:51:31;;;;;;;5.53;5.03;;;7.80;99.90;;;;;;5015686;28;20093;-74
2021/05/09 02:53:57;;;;;;;7.97;5.40;;;7.80;99.90;;;;;;4997177;28;20029;-73
2021/05/09 02:56:23;;;;;;;7.20;5.15;;;7.70;99.90;;;;;;5015386;28;20022;-74
2021/05/09 02:58:48;;;;;;;9.00;6.60;;;7.70;99.90;;;;;;4997493;28;20260;-74
2021/05/09 03:01:14;;;;;;;7.60;6.03;;;7.70;99.90;;;;;;5015140;28;20701;-74
2021/05/09 03:03:39;;;;;;;5.88;5.30;;;7.80;99.90;;;;;;5014490;28;20030;-76
2021/05/09 03:06:05;;;;;;;6.40;5.55;;;7.70;99.90;;;;;;5015258;28;20030;-73
2021/05/09 03:08:33;;;;;;;6.43;4.88;;;7.70;99.90;;;;;;5015097;28;20053;-73
2021/05/09 03:10:59;;;;;;;8.43;6.13;;;7.70;99.90;;;;;;4997623;28;20088;-73
2021/05/09 03:13:25;;;;;;;12.00;7.22;;;7.70;99.90;;;;;;5014687;28;20392;-73
2021/05/09 03:15:50;;;;;;;7.57;6.18;;;7.80;99.90;;;;;;5014762;28;20097;-73
2021/05/09 03:18:16;;;;;;;5.80;5.18;;;7.70;99.90;;;;;;5023675;28;20022;-73
2021/05/09 03:20:42;;;;;;;9.25;5.22;;;7.70;99.90;;;;;;5034589;28;20032;-71
2021/05/09 03:23:08;;;;;;;5.22;3.97;;;7.60;99.90;;;;;;5034352;28;20025;-74
2021/05/09 03:25:33;;;;;;;8.70;5.13;;;7.50;99.90;;;;;;5034664;28;20098;-74
2021/05/09 03:27:59;;;;;;;6.50;4.43;;;7.50;99.90;;;;;;5034817;28;20364;-75
2021/05/09 03:30:25;;;;;;;9.35;5.82;;;7.50;99.90;;;;;;5034298;28;20157;-73
2021/05/09 03:32:54;;;;;;;7.28;5.20;;;7.60;99.90;;;;;;5033683;28;20022;-72
2021/05/09 03:35:20;;;;;;;8.40;6.15;;;7.60;99.90;;;;;;5016540;28;20364;-73
2021/05/09 03:37:46;;;;;;;8.45;6.18;;;7.60;99.90;;;;;;5034374;28;20175;-74
2021/05/09 03:40:12;;;;;;;12.07;6.72;;;7.50;99.90;;;;;;5034570;28;20128;-74
2021/05/09 03:42:38;;;;;;;6.53;5.72;;;7.50;99.90;;;;;;5033511;28;20025;-74
2021/05/09 03:45:04;;;;;;;9.93;5.70;;;7.50;99.90;;;;;;5032972;28;20032;-74
2021/05/09 03:47:30;;;;;;;7.20;5.95;;;7.40;99.90;;;;;;5031839;28;20104;-73
2021/05/09 03:49:57;;;;;;;8.02;6.00;;;7.30;99.90;;;;;;5014166;28;20101;-73
2021/05/09 03:52:23;;;;;;;6.78;5.68;;;7.30;99.90;;;;;;4996354;28;20117;-72
2021/05/09 03:54:49;;;;;;;7.40;5.53;;;7.30;99.90;;;;;;5015288;28;20065;-74
2021/05/09 03:57:15;;;;;;;10.23;5.53;;;7.30;99.90;;;;;;5015881;28;20522;-74
2021/05/09 03:59:41;;;;;;;6.43;5.50;;;7.30;99.90;;;;;;5014187;28;20104;-73
2021/05/09 04:02:07;;;;;;;9.10;6.22;;;7.50;99.90;;;;;;5013963;28;20033;-71
2021/05/09 04:04:33;;;;;;;8.63;6.10;;;7.50;99.90;;;;;;5013263;28;20672;-73
2021/05/09 04:06:59;;;;;;;11.30;6.30;;;7.40;99.90;;;;;;5014030;28;20425;-75
2021/05/09 04:09:24;;;;;;;8.88;6.68;;;7.40;99.90;;;;;;5014192;28;20030;-73
2021/05/09 04:11:50;;;;;;;7.60;6.53;;;7.40;99.90;;;;;;4996043;28;20021;-72
2021/05/09 04:14:17;;;;;;;9.95;6.40;;;7.40;99.90;;;;;;4995868;28;20028;-72
2021/05/09 04:16:43;;;;;;;8.90;6.07;;;7.30;99.90;;;;;;5013754;28;20026;-71
2021/05/09 04:19:09;;;;;;;7.53;6.13;;;7.30;99.90;;;;;;5029169;28;20018;-71
2021/05/09 04:21:34;;;;;;;10.98;5.60;;;7.30;99.90;;;;;;5033487;28;20098;-71
2021/05/09 04:24:00;;;;;;;6.10;5.50;;;7.30;99.90;;;;;;5032638;28;20025;-76
2021/05/09 04:26:26;;;;;;;9.80;5.05;;;7.40;99.90;;;;;;5032915;28;20032;-71
2021/05/09 04:28:52;;;;;;;8.05;5.80;;;7.30;99.90;;;;;;5015226;28;20022;-71
2021/05/09 04:31:17;;;;;;;7.90;5.63;;;7.40;99.90;;;;;;5032953;28;20464;-73
2021/05/09 04:33:43;;;;;;;8.35;5.57;;;7.50;99.90;;;;;;5032499;28;20025;-72
2021/05/09 04:36:09;;;;;;;7.13;5.90;;;7.50;99.90;;;;;;5015233;28;20605;-72
2021/05/09 04:38:35;;;;;;;7.07;6.00;;;7.40;99.90;;;;;;5032759;28;20036;-72
2021/05/09 04:41:00;;;;;;;7.10;6.40;;;7.50;99.90;;;;;;5014607;28;20057;-73
2021/05/09 04:43:27;;;;;;;8.45;6.82;;;7.50;99.90;;;;;;5032066;28;20021;-72
2021/05/09 04:45:54;;;;;;;11.38;6.70;;;7.60;99.90;;;;;;5032737;28;20025;-71
2021/05/09 04:48:21;;;;;;;9.05;6.82;;;7.70;99.90;;;;;;5023610;28;20025;-71
2021/05/09 04:50:47;;;;;;;9.02;6.60;;;7.70;99.90;;;;;;5012594;28;20417;-74
2021/05/09 04:53:26;;;;;;;7.65;6.13;;;7.50;99.90;;;;;;4993992;28;20477;-73
2021/05/09 04:55:57;;;;;;;6.15;5.45;;;7.60;99.90;;;;;;5012437;28;20061;-71
2021/05/09 04:58:24;;;;;;;10.63;6.20;;;7.60;99.90;;;;;;5012729;28;20531;-75
2021/05/09 05:00:54;;;;;;;6.78;5.88;;;7.50;99.90;;;;;;5012238;28;20117;-72
2021/05/09 05:03:20;;;;;;;7.15;5.97;;;7.60;99.90;;;;;;5012062;28;20077;-72
2021/05/09 05:05:47;;;;;;;6.95;5.70;;;7.70;99.90;;;;;;5012626;28;20026;-71
2021/05/09 05:08:13;;;;;;;7.95;5.53;;;7.80;99.90;;;;;;5012715;28;20018;-70
2021/05/09 05:10:38;;;;;;;7.30;6.28;;;7.90;99.90;;;;;;5012556;28;20101;-71
2021/05/09 05:13:19;;;;;;;8.25;6.55;;;7.90;99.90;;;;;;5011743;28;20472;-72
2021/05/09 05:15:50;;;;;;;8.80;6.20;;;7.90;99.90;;;;;;5012884;28;20041;-73
2021/05/09 05:18:16;;;;;;;7.20;6.22;;;8.00;99.90;;;;;;5012165;28;20052;-73
2021/05/09 05:20:42;;;;;;;6.45;5.85;;;8.00;99.90;;;;;;4994149;28;20116;-74
2021/05/09 05:23:09;;;;;;;6.68;6.05;;;8.10;99.90;;;;;;5011614;28;20124;-72
2021/05/09 05:25:35;;;;;;;7.60;5.60;;;8.20;99.90;;;;;;5012283;28;20022;-72
2021/05/09 05:28:03;;;;;;;6.28;5.65;;;8.30;99.90;;;;;;5012021;28;20022;-72
2021/05/09 05:30:28;;;;;;;8.40;5.55;;;8.30;99.90;;;;;;5012073;28;20495;-71
2021/05/09 05:32:54;;;;;;;6.32;5.43;;;8.30;99.90;;;;;;5011822;28;20026;-71
2021/05/09 05:35:20;;;;;;;7.25;5.57;;;8.40;99.90;;;;;;5011568;28;20026;-73
2021/05/09 05:37:45;;;;;;;5.30;4.80;;;8.60;99.90;;;;;;5011979;28;20030;-71
2021/05/09 05:40:12;;;;;;;6.50;4.57;;;8.60;99.90;;;;;;5011596;28;20145;-72
2021/05/09 05:42:38;;;;;;;8.85;4.97;;;8.60;99.90;;;;;;5011361;28;20165;-70
2021/05/09 05:45:05;;;;;;;6.13;5.30;;;8.60;99.90;;;;;;4994282;28;20496;-72
2021/05/09 05:47:31;;;;;;;5.50;4.78;;;8.70;99.90;;;;;;4994075;28;20396;-72
2021/05/09 05:49:58;;;;;;;7.20;5.00;;;8.90;99.90;;;;;;5011529;28;20025;-72
2021/05/09 05:52:24;;;;;;;7.05;5.07;;;8.90;99.90;;;;;;5012140;28;20092;-72
2021/05/09 05:54:49;;;;;;;8.60;4.72;;;9.00;99.90;;;;;;5011641;28;20108;-72
2021/05/09 05:57:15;;;;;;;5.07;4.57;;;9.00;99.90;;;;;;4994496;28;20026;-72
2021/05/09 05:59:42;;;;;;;5.35;4.28;;;9.00;99.90;;;;;;5008449;28;20026;-73
2021/05/09 06:02:07;;;;;;;4.75;4.00;;;9.10;99.90;;;;;;5026924;28;20048;-71
2021/05/09 06:04:33;;;;;;;5.93;5.20;;;9.20;99.90;;;;;;5018303;28;20425;-73
2021/05/09 06:06:59;;;;;;;5.32;4.82;;;9.50;99.90;;;;;;5022886;28;20372;-71
2021/05/09 06:09:26;;;;;;;7.45;4.75;;;9.60;99.90;;;;;;5017525;28;20072;-74
2021/05/09 06:11:51;;;;;;;5.70;4.22;;;9.70;99.90;;;;;;5038074;28;20831;-72
2021/05/09 06:14:17;;;;;;;8.93;5.03;;;9.80;99.90;;;;;;5047127;28;20025;-72
2021/05/09 06:16:43;;;;;;;6.57;4.53;;;9.80;99.90;;;;;;5040606;28;20033;-72
2021/05/09 06:19:08;;;;;;;4.75;4.30;;;10.00;99.90;;;;;;5021639;28;20018;-72
2021/05/09 06:21:34;;;;;;;5.38;4.18;;;10.10;99.90;;;;;;5017952;28;20085;-72
2021/05/09 06:24:00;;;;;;;4.95;4.10;;;10.20;99.90;;;;;;4999937;28;20029;-73
2021/05/09 06:26:25;;;;;;;7.53;4.53;;;10.30;99.90;;;;;;5017934;28;20152;-72
2021/05/09 06:28:53;;;;;;;6.47;3.80;;;10.50;99.90;;;;;;5018475;28;20026;-71
2021/05/09 06:31:19;;;;;;;5.40;4.00;;;10.60;99.90;;;;;;5019202;28;20472;-72
2021/05/09 06:33:45;;;;;;;3.70;3.25;;;10.70;99.90;;;;;;5024904;28;20042;-73
2021/05/09 06:36:10;;;;;;;4.38;3.63;;;10.90;99.90;;;;;;5001832;28;20041;-74
2021/05/09 06:38:38;;;;;;;5.88;3.17;;;11.20;99.90;;;;;;5018377;28;20484;-72
2021/05/09 06:41:03;;;;;;;4.55;3.45;;;11.30;99.90;;;;;;5018039;28;20049;-73
2021/05/09 06:43:30;;;;;;;8.13;3.20;;;11.50;99.90;;;;;;5021941;28;20033;-73
2021/05/09 06:45:56;;;;;;;4.32;2.90;;;11.70;99.90;;;;;;4998823;28;20076;-73
2021/05/09 06:48:23;;;;;;;4.15;3.30;;;11.90;99.90;;;;;;5021561;28;20029;-72
2021/05/09 06:50:48;;;;;;;4.65;3.35;;;12.00;99.90;;;;;;4998849;28;20028;-73
2021/05/09 06:53:14;;;;;;;3.13;2.83;;;12.30;99.90;;;;;;5016038;28;20140;-74
2021/05/09 06:55:40;;;;;;;5.53;2.85;;;12.40;99.90;;;;;;5016568;28;20029;-72
2021/05/09 06:58:07;;;;;;;3.47;2.90;;;12.60;99.90;;;;;;4999581;28;20034;-73
2021/05/09 07:00:33;;;;;;;4.43;2.80;;;12.80;99.90;;;;;;5017227;28;20030;-74
2021/05/09 07:02:59;;;;;;;2.97;2.15;;;13.00;99.90;;;;;;5016925;28;20532;-73
2021/05/09 07:05:24;;;;;;;4.35;2.13;;;13.20;99.90;;;;;;5016471;28;20018;-74
2021/05/09 07:07:55;;;;;;;2.47;2.28;;;13.50;99.90;;;;;;5016971;28;20420;-72
2021/05/09 07:10:23;;;;;;;3.17;2.60;;;13.60;99.90;;;;;;5016762;28;20025;-72
2021/05/09 07:12:49;;;;;;;3.15;2.33;;;13.80;99.90;;;;;;5016472;28;20097;-72
2021/05/09 07:15:22;;;;;;;4.88;2.28;;;14.00;99.90;;;;;;5018308;28;20041;-75
2021/05/09 07:18:05;;;;;;;3.45;2.60;;;14.20;99.90;;;;;;5020598;28;20030;-73
2021/05/09 07:20:33;;;;;;;2.30;2.10;;;14.50;99.90;;;;;;5018507;28;20075;-71
2021/05/09 07:22:59;;;;;;;6.53;2.25;;;14.70;99.90;;;;;;5015224;28;20472;-72
2021/05/09 07:25:25;;;;;;;2.85;1.50;;;15.00;99.90;;;;;;5013653;28;20400;-73
2021/05/09 07:27:51;;;;;;;2.00;1.60;;;15.30;99.90;;;;;;4996402;28;20041;-72
2021/05/09 07:30:17;;;;;;;4.88;2.05;;;15.40;99.90;;;;;;5012655;28;20488;-73
2021/05/09 07:32:43;;;;;;;2.45;1.50;;;15.70;99.90;;;;;;4994949;28;20029;-71
2021/05/09 07:35:09;;;;;;;2.08;1.40;;;15.90;99.90;;;;;;5012118;28;20396;-73
2021/05/09 07:37:34;;;;;;;4.72;2.47;;;16.10;99.90;;;;;;5012389;28;20045;-72
2021/05/09 07:40:00;;;;;;;3.78;1.95;;;16.30;99.90;;;;;;5011830;28;20029;-73
2021/05/09 07:42:26;;;;;;;1.88;1.73;;;16.50;99.90;;;;;;5011468;28;20036;-73
2021/05/09 07:44:55;;;;;;;2.10;2.00;;;16.80;99.90;;;;;;5011221;28;20070;-72
2021/05/09 07:47:21;;;;;;;1.75;1.60;;;17.10;99.90;;;;;;5012063;28;20017;-73
2021/05/09 07:49:46;;;;;;;3.30;1.50;;;17.40;99.90;;;;;;5011720;28;20026;-72
2021/05/09 07:52:12;;;;;;;3.88;1.45;;;17.70;99.90;;;;;;5011643;28;20018;-74
2021/05/09 07:54:38;;;;;;;3.10;1.90;;;17.90;99.90;;;;;;5014403;28;20825;-74
2021/05/09 07:57:05;;;;;;;5.30;1.75;;;18.00;99.90;;;;;;5031522;28;20108;-72
2021/05/09 07:59:32;;;;;;;2.42;1.60;;;18.20;99.90;;;;;;5031912;28;20068;-74
2021/05/09 08:01:58;;;;;;;6.32;1.60;;;18.60;99.90;;;;;;5031111;28;20017;-72
2021/05/09 08:04:23;;;;;;;1.88;1.50;;;19.00;99.90;;;;;;5031234;28;20052;-74
2021/05/09 08:06:49;;;;;;;1.88;1.58;;;19.20;99.90;;;;;;5031073;28;20100;-73
2021/05/09 08:09:15;;;;;;;2.47;1.50;;;19.40;99.90;;;;;;5013296;28;20108;-73
2021/05/09 08:11:40;;;;;;;2.83;1.50;;;19.70;99.90;;;;;;5031470;28;20033;-72
2021/05/09 08:14:06;;;;;;;1.50;1.40;;;20.00;99.90;;;;;;5030916;28;20014;-71
2021/05/09 08:16:32;;;;;;;1.30;1.20;;;20.30;99.90;;;;;;5031231;28;20064;-70
2021/05/09 08:18:57;;;;;;;3.75;1.45;;;20.40;99.90;;;;;;5017414;28;20026;-72
2021/05/09 08:21:23;;;;;;;1.90;1.27;;;21.20;99.70;;;;;;4994336;28;20802;-72
2021/05/09 08:23:48;;;;;;;1.67;1.30;;;21.30;99.10;;;;;;5011596;28;20041;-72
2021/05/09 08:26:14;;;;;;;1.50;1.00;;;21.50;99.90;;;;;;5011652;28;20029;-72
2021/05/09 08:28:42;;;;;;;1.45;1.05;;;22.00;97.30;;;;;;5011922;28;20022;-71
2021/05/09 08:31:10;;;;;;;1.38;1.27;;;22.80;96.60;;;;;;5010993;28;20704;-72
2021/05/09 08:33:36;;;;;;;2.40;1.10;;;23.30;95.00;;;;;;5011251;28;20029;-72
2021/05/09 08:36:02;;;;;;;1.02;0.90;;;23.50;92.80;;;;;;5011415;28;20072;-71
2021/05/09 08:38:27;;;;;;;0.93;0.73;;;24.50;90.70;;;;;;5011085;28;20037;-72
2021/05/09 08:40:53;;;;;;;1.95;1.05;;;24.20;87.30;;;;;;5010661;28;20036;-72
2021/05/09 08:43:18;;;;;;;1.10;1.00;;;25.30;85.10;;;;;;5010720;28;20018;-74
2021/05/09 08:45:44;;;;;;;1.00;1.00;;;25.30;85.50;;;;;;5011134;28;20022;-73
2021/05/09 08:48:22;;;;;;;2.53;0.90;;;25.50;84.50;;;;;;5010493;28;20044;-71
2021/05/09 08:50:49;;;;;;;0.88;0.82;;;26.30;82.60;;;;;;5010854;28;20022;-71
2021/05/09 08:53:19;;;;;;;6.97;0.85;;;24.80;79.50;;;;;;5010505;28;20233;-72
2021/05/09 08:55:45;;;;;;;1.25;0.77;;;25.20;79.70;;;;;;5023616;28;20032;-71
2021/05/09 08:58:11;;;;;;;0.68;0.68;;;26.80;76.00;;;;;;5030083;28;20100;-71
2021/05/09 09:00:38;;;;;;;1.10;0.82;;;27.70;73.90;;;;;;5030306;28;20021;-71
2021/05/09 09:03:05;;;;;;;3.15;0.75;;;28.20;75.40;;;;;;5029746;28;20160;-73
2021/05/09 09:05:35;;;;;;;0.75;0.75;;;27.90;71.00;;;;;;5030104;28;20030;-72
2021/05/09 09:08:01;;;;;;;0.85;0.70;;;27.50;69.40;;;;;;5030018;28;20075;-73
2021/05/09 09:10:32;;;;;;;1.67;0.90;;;27.70;69.30;;;;;;5030599;28;20483;-74
2021/05/09 09:13:00;;;;;;;1.55;0.90;;;28.20;70.00;;;;;;5029468;28;20060;-72
2021/05/09 09:15:51;;;;;;;1.45;0.90;;;29.40;63.30;;;;;;5029915;28;20483;-72
2021/05/09 09:18:40;;;;;;;3.10;1.00;;;30.40;60.10;;;;;;5021077;28;20056;-71
2021/05/09 09:21:24;;;;;;;0.90;0.90;;;30.10;62.20;;;;;;5009821;28;20476;-70
2021/05/09 09:24:04;;;;;;;2.55;0.88;;;29.50;60.90;;;;;;4992137;28;20598;-71
2021/05/09 09:26:41;;;;;;;2.85;0.77;;;29.70;59.10;;;;;;4992277;28;20026;-71
2021/05/09 09:29:22;;;;;;;1.08;0.80;;;28.50;58.90;;;;;;5009575;28;20079;-70
2021/05/09 09:31:52;;;;;;;1.63;0.80;;;29.30;59.40;;;;;;5014464;28;20036;-71
2021/05/09 09:34:18;;;;;;;0.95;0.60;;;29.80;58.60;;;;;;5009309;28;20022;-70
2021/05/09 09:36:45;;;;;;;1.23;0.63;;;30.80;55.70;;;;;;5009634;28;20026;-70
2021/05/09 09:39:11;;;;;;;1.08;0.98;;;30.30;55.60;;;;;;5009241;28;20026;-70
2021/05/09 09:41:44;;;;;;;1.05;0.80;;;30.30;55.00;;;;;;5012442;28;20041;-70
2021/05/09 09:44:12;;;;;;;1.77;0.80;;;31.10;54.90;;;;;;5042049;28;20475;-73
2021/05/09 09:46:41;;;;;;;0.60;0.60;;;30.60;50.90;;;;;;5030515;28;20176;-70
2021/05/09 09:49:25;;;;;;;2.05;0.60;;;31.00;51.40;;;;;;5030354;28;20021;-69
2021/05/09 09:51:54;;;;;;;0.65;0.65;;;32.20;51.00;;;;;;5017985;28;20112;-70
2021/05/09 09:54:34;;;;;;;2.10;0.80;;;31.10;49.90;;;;;;5040855;28;20048;-69
2021/05/09 09:57:01;;;;;;;1.60;0.50;;;30.90;53.10;;;;;;5035622;28;20033;-68
2021/05/09 09:59:27;;;;;;;1.30;0.68;;;31.90;51.50;;;;;;5048590;28;20104;-68
2021/05/09 10:01:53;;;;;;;2.58;0.90;;;32.50;49.90;;;;;;5048922;28;20108;-68
2021/05/09 10:04:20;;;;;;;0.70;0.70;;;33.10;47.10;;;;;;5048679;28;20032;-68
2021/05/09 10:06:45;;;;;;;3.40;0.60;;;31.80;49.60;;;;;;5031273;28;20025;-68
2021/05/09 10:09:11;;;;;;;0.50;0.50;;;31.30;48.80;;;;;;5049067;28;20838;-69
2021/05/09 10:11:37;;;;;;;0.63;0.45;;;31.70;48.90;;;;;;5049268;28;20040;-69
2021/05/09 10:14:05;;;;;;;2.83;0.70;;;32.70;48.60;;;;;;5048770;28;20104;-68
2021/05/09 10:16:34;;;;;;;1.95;0.50;;;33.80;48.80;;;;;;5048908;28;20079;-69
2021/05/09 10:19:02;;;;;;;1.10;0.60;;;32.30;45.70;;;;;;5001992;28;20217;-68
2021/05/09 10:21:35;;;;;;;1.00;0.70;;;32.30;44.10;;;;;;5008954;28;20080;-68
2021/05/09 10:24:10;;;;;;;5.15;0.70;;;31.90;50.10;;;;;;4991448;28;20028;-68
2021/05/09 10:26:48;;;;;;;3.63;0.75;;;32.10;45.20;;;;;;4991713;28;20018;-69
2021/05/09 10:29:32;;;;;;;3.50;0.68;;;32.10;44.50;;;;;;4991597;28;20026;-68
2021/05/09 10:32:18;;;;;;;3.17;0.68;;;32.30;48.30;;;;;;5010501;28;20029;-68
2021/05/09 10:34:57;;;;;;;2.00;0.88;;;31.80;46.00;;;;;;5002417;28;20042;-68
2021/05/09 10:40:26;;;;;;;1.05;0.55;;;31.00;46.80;;;;;;5009143;28;20404;-69
2021/05/09 10:43:01;;;;;;;1.63;0.60;;;31.40;47.10;;;;;;5007839;28;20056;-70
2021/05/09 10:45:50;;;;;;;1.13;0.70;;;32.00;47.00;;;;;;4991273;28;20092;-72
2021/05/09 10:48:20;;;;;;;1.60;0.70;;;32.30;45.30;;;;;;5017764;28;20033;-70
2021/05/09 10:51:14;;;;;;;1.38;0.73;;;31.60;45.80;;;;;;5019342;28;20021;-68
2021/05/09 10:53:41;;;;;;;3.05;0.80;;;31.60;47.40;;;;;;4975442;28;20200;-69
2021/05/09 10:56:08;;;;;;;1.85;0.75;;;31.80;45.70;;;;;;5016946;28;20076;-68
2021/05/09 10:58:49;;;;;;;2.50;0.50;;;32.00;46.20;;;;;;5013282;28;20076;-69
2021/05/09 11:01:19;;;;;;;1.90;0.52;;;33.20;42.40;;;;;;5012629;28;20056;-69
2021/05/09 11:04:05;;;;;;;1.25;0.57;;;32.90;44.60;;;;;;5012030;28;20133;-69
2021/05/09 11:06:42;;;;;;;1.10;0.63;;;33.40;42.50;;;;;;5015331;28;20036;-72
2021/05/09 11:09:11;;;;;;;2.25;0.47;;;32.90;42.50;;;;;;5020643;28;20021;-73
2021/05/09 11:11:37;;;;;;;3.88;0.68;;;32.80;42.40;;;;;;5020136;28;20029;-73
2021/05/09 11:16:42;;;;;;;1.60;0.50;;;32.70;42.40;;;;;;5022258;28;20196;-73
2021/05/09 11:19:18;;;;;;;2.03;0.43;;;34.00;40.50;;;;;;5022132;28;20064;-73
2021/05/09 11:21:50;;;;;;;0.50;0.50;;;34.20;40.20;;;;;;5026659;28;20491;-70
2021/05/09 11:24:25;;;;;;;2.45;0.60;;;34.20;40.20;;;;;;5014289;28;20057;-69
2021/05/09 11:26:53;;;;;;;0.98;0.57;;;33.80;38.30;;;;;;5033549;28;20557;-70
2021/05/09 11:29:21;;;;;;;1.65;0.45;;;34.30;41.20;;;;;;5016353;28;20044;-69
2021/05/09 11:31:53;;;;;;;2.30;0.52;;;33.00;40.10;;;;;;5014721;28;20151;-70
2021/05/09 11:34:21;;;;;;;1.30;0.65;;;32.70;40.50;;;;;;5043066;28;20037;-70
2021/05/09 11:36:52;;;;;;;1.92;0.60;;;32.50;38.80;;;;;;5033922;28;20057;-70
2021/05/09 11:39:28;;;;;;;1.23;0.60;;;32.20;39.00;;;;;;5051954;28;20532;-69
2021/05/09 11:41:59;;;;;;;0.63;0.60;;;32.70;42.50;;;;;;5032462;28;20033;-70
2021/05/09 11:44:26;;;;;;;0.73;0.53;;;34.00;39.20;;;;;;5032622;28;20036;-70
2021/05/09 11:46:53;;;;;;;0.52;0.50;;;34.30;38.80;;;;;;5051368;28;20306;-70
2021/05/09 11:49:24;;;;;;;2.17;0.43;;;33.90;37.70;;;;;;5016637;28;20211;-70
2021/05/09 11:51:58;;;;;;;0.50;0.50;;;33.40;37.10;;;;;;5010436;28;20101;-69
2021/05/09 11:54:25;;;;;;;1.08;0.70;;;33.10;39.60;;;;;;4994690;28;20057;-69
2021/05/09 11:57:03;;;;;;;1.40;0.60;;;33.20;38.20;;;;;;5031237;28;20543;-69
2021/05/09 11:59:41;;;;;;;2.42;0.50;;;33.20;38.30;;;;;;5030759;28;20449;-69
2021/05/09 12:02:13;;;;;;;3.08;0.60;;;33.60;38.80;;;;;;5030471;28;20100;-69
2021/05/09 12:04:39;;;;;;;0.88;0.50;;;33.30;37.60;;;;;;5030101;28;20018;-69
2021/05/09 12:07:07;;;;;;;1.40;0.52;;;33.30;36.80;;;;;;5029688;28;20627;-68
2021/05/09 12:09:34;;;;;;;1.23;0.70;;;33.00;36.20;;;;;;5030010;28;20043;-71
2021/05/09 12:12:00;;;;;;;1.02;0.60;;;32.60;36.30;;;;;;5030144;28;20017;-68
2021/05/09 12:14:27;;;;;;;3.05;0.60;;;32.40;39.20;;;;;;5030105;28;20199;-69
2021/05/09 12:16:53;;;;;;;2.58;0.60;;;32.10;38.40;;;;;;5030193;28;20021;-70
2021/05/09 12:19:28;;;;;;;2.13;0.57;;;31.50;38.10;;;;;;5013763;28;20049;-70
2021/05/09 12:21:58;;;;;;;0.60;0.60;;;31.00;39.40;;;;;;5010773;28;20558;-71
2021/05/09 12:24:25;;;;;;;0.50;0.50;;;31.20;42.40;;;;;;5009682;28;20116;-69
2021/05/09 12:27:05;;;;;;;0.90;0.73;;;31.70;40.40;;;;;;5010983;28;20538;-70
2021/05/09 12:29:41;;;;;;;0.63;0.50;;;31.70;38.50;;;;;;5011246;28;20030;-70
2021/05/09 12:32:17;;;;;;;0.52;0.52;;;32.00;41.90;;;;;;5010822;28;20021;-69
2021/05/09 12:35:04;;;;;;;1.15;0.50;;;33.00;40.00;;;;;;5010082;28;20160;-69
2021/05/09 12:37:31;;;;;;;1.30;0.60;;;33.40;40.00;;;;;;5011070;28;20076;-72
2021/05/09 12:40:23;;;;;;;0.82;0.73;;;33.50;36.90;;;;;;5011413;28;20026;-70
2021/05/09 12:43:15;;;;;;;2.75;0.55;;;33.40;37.70;;;;;;5015841;28;20029;-71
2021/05/09 12:45:41;;;;;;;3.03;0.80;;;33.70;36.80;;;;;;5026623;28;20768;-71
2021/05/09 12:48:16;;;;;;;1.90;0.50;;;33.50;38.80;;;;;;5012059;28;20030;-70
2021/05/09 12:50:54;;;;;;;1.85;0.40;;;32.90;37.10;;;;;;5010921;28;20026;-68
2021/05/09 12:53:40;;;;;;;0.63;0.40;;;33.00;39.70;;;;;;5010296;28;20038;-69
2021/05/09 12:56:24;;;;;;;1.63;0.82;;;33.10;38.30;;;;;;5012010;28;20415;-70
2021/05/09 12:59:02;;;;;;;1.60;0.60;;;33.50;39.30;;;;;;5020388;28;20083;-70
2021/05/09 13:01:29;;;;;;;1.73;0.57;;;32.90;38.00;;;;;;5034297;28;20080;-70